Weather at Dallas/Fort Worth Medical Center Heliport

Public forecast

Using degrees Fahrenheit for public forecast. Weather courtesy of forecast.io.

Closest aviation weather report (METAR) to Dallas/Fort Worth Medical Center Heliport

Closest report is Grand Prairie Municipal Airport, 2.0 nm (3.7 km) S.

2024/07/21 06:15 (retrieved 23 minutes ago)

KGPM 210615Z AUTO 14005KT 10SM BKN095 28/17 A3004 RMK AO2 T02770166

Closest aviation forecast (TAF) to Dallas/Fort Worth Medical Center Heliport

Closest forecast is Arlington Municipal Airport, 4.7 nm (8.7 km) SSW.

2024/07/21 06:22 (retrieved 16 minutes ago)

TAF KGKY 210520Z 2106/2206 14008KT P6SM FEW120 BKN250 FM211200 16007KT P6SM VCSH BKN060 FM211800 13007KT P6SM VCTS BKN050CB FM212200 09008KT P6SM BKN050